Terminal Aerodrome Forecast
Issued by NWS

Home | Current Version | Previous Version | Text Only | Print | Product List | Glossary On
Versions: 1 2 3 4 5 6 7 8 9 10 11 12 13 14 15 16
000
FTUS46 KSEW 221730
TAFBLI
TAF
KBLI 221730Z 2218/2318 18004KT P6SM VCSH SCT018 BKN030
      TEMPO 2218/2222 6SM -SHRA BKN018 OVC030
     FM222200 24005KT P6SM SCT030
     FM230200 VRB03KT P6SM SKC
     FM231400 03004KT 6SM BR SCT012=

USA.gov is the U.S. government's official web portal to all federal, state and local government web resources and services.